Time;durP1;ratioP1;P1;durP2;ratioP2;P2;SDS_P1;SDS_P2;PMS_P1;PMS_P2;Temp;Humidity;BMP_temperature;BMP_pressure;BME280_temperature;BME280_humidity;BME280_pressure;Samples;Min_cycle;Max_cycle;Signal;HPM_P1;HPM_P2
2023/09/02 00:01:27;;;;;;;7.10;3.75;;;;;;;20.21;60.93;99455.66;4511247;31;34706;-84
2023/09/02 00:03:55;;;;;;;6.20;2.60;;;;;;;20.11;61.63;99454.13;4526404;31;33864;-83
2023/09/02 00:06:23;;;;;;;6.28;3.05;;;;;;;20.12;61.59;99456.75;4526559;31;33786;-81
2023/09/02 00:08:51;;;;;;;6.90;2.65;;;;;;;20.09;61.84;99455.94;4514163;31;33742;-83
2023/09/02 00:11:18;;;;;;;7.18;2.78;;;;;;;20.06;61.81;99456.88;4510359;31;34061;-82
2023/09/02 00:13:46;;;;;;;5.85;3.47;;;;;;;20.06;61.55;99456.00;4510412;31;34378;-82
2023/09/02 00:16:14;;;;;;;4.93;3.00;;;;;;;20.07;61.18;99450.69;4510253;31;34713;-84
2023/09/02 00:18:42;;;;;;;7.80;3.45;;;;;;;20.02;61.06;99449.06;4510913;31;33498;-82
2023/09/02 00:21:11;;;;;;;5.75;3.47;;;;;;;20.11;60.71;99454.13;4509089;31;32062;-85
2023/09/02 00:23:45;;;;;;;5.82;3.25;;;;;;;20.13;60.86;99462.88;4513481;31;34598;-83
2023/09/02 00:26:13;;;;;;;6.85;3.30;;;;;;;20.03;61.22;99456.06;4494440;32;35123;-85
2023/09/02 00:28:40;;;;;;;5.05;3.30;;;;;;;20.00;61.00;99448.22;4494371;31;34411;-84
2023/09/02 00:31:08;;;;;;;6.40;3.50;;;;;;;20.00;61.09;99450.84;4497399;31;34464;-85
2023/09/02 00:33:36;;;;;;;6.20;3.58;;;;;;;19.93;61.27;99444.87;4510307;31;33836;-83
2023/09/02 00:36:04;;;;;;;7.03;3.78;;;;;;;20.03;60.77;99446.41;4508209;31;34838;-86
2023/09/02 00:38:32;;;;;;;8.32;3.90;;;;;;;19.95;60.91;99448.31;4508006;31;34471;-84
2023/09/02 00:41:02;;;;;;;8.55;4.20;;;;;;;19.90;60.83;99442.31;4493015;32;33562;-85
2023/09/02 00:43:30;;;;;;;7.57;3.92;;;;;;;19.83;61.00;99438.91;4493081;32;33354;-85
2023/09/02 00:45:58;;;;;;;9.00;4.90;;;;;;;19.99;60.60;99430.72;4495596;31;34251;-88
2023/09/02 00:48:26;;;;;;;6.68;4.43;;;;;;;19.93;60.88;99429.94;4510216;31;33912;-86
2023/09/02 00:50:54;;;;;;;7.65;4.80;;;;;;;19.85;61.13;99437.13;4510146;31;33411;-87
2023/09/02 00:53:24;;;;;;;7.72;4.22;;;;;;;19.87;61.27;99445.84;4488623;32;33456;-87
2023/09/02 00:55:52;;;;;;;13.60;4.35;;;;;;;19.84;61.41;99440.66;4504490;31;33773;-85
2023/09/02 00:58:20;;;;;;;8.73;4.85;;;;;;;19.81;61.57;99438.09;4503635;31;34734;-85
2023/09/02 01:00:48;;;;;;;7.65;4.55;;;;;;;19.67;61.86;99442.78;4498031;31;34199;-84
2023/09/02 01:03:16;;;;;;;5.90;3.58;;;;;;;19.74;61.61;99443.53;4496891;31;33240;-84
2023/09/02 01:05:44;;;;;;;7.55;4.28;;;;;;;19.76;61.41;99447.84;4489956;31;35079;-84
2023/09/02 01:08:12;;;;;;;10.18;4.12;;;;;;;19.66;61.80;99446.28;4483843;31;32305;-85
2023/09/02 01:10:40;;;;;;;8.57;4.47;;;;;;;19.85;61.19;99450.28;4494472;31;32735;-84
2023/09/02 01:13:07;;;;;;;10.82;4.70;;;;;;;19.90;60.89;99450.19;4498263;31;33649;-85
2023/09/02 01:15:35;;;;;;;7.45;4.35;;;;;;;19.99;60.24;99450.00;4476385;32;34080;-85
2023/09/02 01:18:03;;;;;;;10.02;4.28;;;;;;;19.92;60.43;99449.25;4483737;32;33948;-83
2023/09/02 01:21:10;;;;;;;8.95;3.87;;;;;;;19.97;60.25;99453.56;4470559;31;32823;-83
2023/09/02 01:23:40;;;;;;;6.15;3.97;;;;;;;19.91;60.69;99455.41;4483743;32;33653;-85
2023/09/02 01:26:22;;;;;;;7.82;4.43;;;;;;;19.78;61.04;99461.84;4493734;31;33285;-85
2023/09/02 01:28:53;;;;;;;5.65;3.37;;;;;;;19.85;60.87;99452.03;4497805;31;34394;-85
2023/09/02 01:31:22;;;;;;;6.20;3.75;;;;;;;19.74;61.09;99454.03;4489411;31;33205;-84
2023/09/02 01:33:52;;;;;;;7.40;4.15;;;;;;;19.82;60.78;99447.72;4482067;32;33956;-83
2023/09/02 01:36:21;;;;;;;7.50;4.00;;;;;;;19.78;61.20;99443.41;4481866;31;33329;-87
2023/09/02 01:38:51;;;;;;;8.93;4.03;;;;;;;19.82;60.69;99433.72;4482800;31;34683;-85
2023/09/02 01:41:21;;;;;;;7.25;3.70;;;;;;;19.82;60.45;99439.84;4482093;32;32337;-86
2023/09/02 01:43:49;;;;;;;5.60;3.40;;;;;;;19.80;60.74;99444.25;4482199;32;33963;-87
2023/09/02 01:46:18;;;;;;;7.45;3.92;;;;;;;19.85;60.51;99436.25;4494641;31;33751;-86
2023/09/02 01:48:46;;;;;;;4.97;3.55;;;;;;;19.79;60.77;99442.53;4497833;31;33710;-87
2023/09/02 01:51:14;;;;;;;7.15;3.30;;;;;;;19.88;60.61;99446.72;4497905;31;33217;-86
2023/09/02 01:53:42;;;;;;;6.62;3.90;;;;;;;19.84;60.36;99445.03;4496720;31;34733;-86
2023/09/02 01:56:10;;;;;;;6.47;3.80;;;;;;;19.83;60.54;99448.59;4482771;31;33720;-84
2023/09/02 01:58:37;;;;;;;7.70;3.80;;;;;;;19.74;60.68;99443.53;4483525;32;33526;-86
2023/09/02 02:01:05;;;;;;;7.78;4.30;;;;;;;19.85;60.40;99449.41;4488950;31;33276;-85
2023/09/02 02:03:36;;;;;;;7.28;3.75;;;;;;;19.80;60.70;99449.50;4483477;31;33267;-84
2023/09/02 02:06:08;;;;;;;8.48;3.90;;;;;;;19.78;60.77;99451.31;4489359;31;34027;-84
2023/09/02 02:08:44;;;;;;;7.47;4.22;;;;;;;19.79;60.59;99446.91;4497919;31;33277;-83
2023/09/02 02:11:14;;;;;;;5.93;3.50;;;;;;;19.68;60.99;99452.37;4480875;32;33011;-85
2023/09/02 02:13:43;;;;;;;6.00;3.72;;;;;;;19.58;61.25;99456.06;4482969;31;33730;-83
2023/09/02 02:16:11;;;;;;;7.03;4.12;;;;;;;19.69;61.06;99446.22;4482989;32;33361;-84
2023/09/02 02:18:38;;;;;;;7.35;4.10;;;;;;;19.50;61.75;99455.34;4482586;32;33518;-84
2023/09/02 02:21:07;;;;;;;7.47;4.68;;;;;;;19.42;62.18;99453.72;4483181;32;34025;-84
2023/09/02 02:23:34;;;;;;;10.38;5.60;;;;;;;19.30;62.75;99453.09;4483165;32;33866;-86
2023/09/02 02:26:04;;;;;;;11.07;5.10;;;;;;;19.32;62.86;99453.91;4480095;31;34093;-85
2023/09/02 02:28:32;;;;;;;10.55;5.12;;;;;;;19.33;62.66;99450.41;4468862;32;32872;-83
2023/09/02 02:31:00;;;;;;;7.18;4.45;;;;;;;19.40;62.33;99452.87;4481722;32;33524;-84
2023/09/02 02:33:27;;;;;;;9.40;5.03;;;;;;;19.33;62.43;99453.88;4481018;31;33796;-85
2023/09/02 02:35:55;;;;;;;10.00;5.47;;;;;;;19.36;62.27;99453.84;4482237;32;35188;-84
2023/09/02 02:38:22;;;;;;;8.95;4.90;;;;;;;19.42;62.20;99456.34;4482901;32;33502;-84
2023/09/02 02:40:50;;;;;;;8.82;4.82;;;;;;;19.34;62.76;99454.75;4483089;32;33488;-86
2023/09/02 02:43:24;;;;;;;10.75;5.43;;;;;;;19.27;63.16;99463.66;4483278;31;33831;-84
2023/09/02 02:45:55;;;;;;;11.98;5.03;;;;;;;19.27;63.21;99446.09;4485911;31;33932;-87
2023/09/02 02:48:26;;;;;;;6.62;4.62;;;;;;;19.19;63.41;99455.91;4483434;31;33865;-84
2023/09/02 02:50:54;;;;;;;8.25;4.85;;;;;;;19.25;63.36;99447.91;4497302;31;31895;-84
2023/09/02 02:53:23;;;;;;;9.00;5.10;;;;;;;19.16;63.81;99453.31;4496567;31;34564;-84
2023/09/02 02:55:52;;;;;;;10.35;5.45;;;;;;;19.12;64.18;99456.88;4484338;31;33642;-84
2023/09/02 02:58:19;;;;;;;9.30;5.55;;;;;;;19.19;63.85;99450.63;4485698;31;33704;-84
2023/09/02 03:00:49;;;;;;;9.68;5.78;;;;;;;19.31;63.47;99455.66;4482886;32;32758;-84
2023/09/02 03:03:17;;;;;;;11.73;5.97;;;;;;;19.14;64.09;99458.59;4484191;31;33996;-84
2023/09/02 03:05:45;;;;;;;10.68;6.22;;;;;;;19.06;64.43;99459.66;4498673;31;35112;-84
2023/09/02 03:08:13;;;;;;;9.77;6.32;;;;;;;19.18;63.94;99454.16;4498390;31;33970;-81
2023/09/02 03:10:40;;;;;;;11.38;6.30;;;;;;;19.20;63.46;99455.00;4498522;31;34006;-84
2023/09/02 03:13:08;;;;;;;8.82;6.37;;;;;;;19.37;62.92;99452.94;4496263;31;32731;-83
2023/09/02 03:15:36;;;;;;;9.15;5.65;;;;;;;19.15;63.50;99454.22;4498687;31;34987;-84
2023/09/02 03:18:04;;;;;;;8.88;6.15;;;;;;;19.14;63.52;99457.75;4491772;31;34613;-85
2023/09/02 03:20:32;;;;;;;7.72;5.55;;;;;;;19.17;63.61;99455.06;4483347;32;33457;-84
2023/09/02 03:23:04;;;;;;;8.90;5.82;;;;;;;19.10;63.89;99466.56;4488805;31;34695;-84
2023/09/02 03:25:32;;;;;;;9.60;5.43;;;;;;;19.14;63.77;99463.00;4470633;31;33775;-84
2023/09/02 03:28:00;;;;;;;8.52;5.93;;;;;;;19.19;63.75;99464.62;4498565;31;33764;-84
2023/09/02 03:30:28;;;;;;;8.90;5.80;;;;;;;19.17;63.74;99468.22;4496255;31;33341;-84
2023/09/02 03:32:56;;;;;;;9.43;5.95;;;;;;;19.20;63.45;99468.13;4490794;31;34010;-84
2023/09/02 03:35:25;;;;;;;7.62;5.15;;;;;;;19.15;63.30;99459.47;4482626;31;34112;-84
2023/09/02 03:37:52;;;;;;;7.28;5.28;;;;;;;19.14;63.38;99465.63;4481027;32;33667;-83
2023/09/02 03:40:20;;;;;;;8.43;4.37;;;;;;;19.20;63.06;99455.00;4483287;31;33432;-83
2023/09/02 03:42:48;;;;;;;7.70;4.65;;;;;;;19.10;63.60;99461.31;4496944;31;33588;-86
2023/09/02 03:45:16;;;;;;;7.25;4.68;;;;;;;19.02;63.96;99460.59;4498090;31;34216;-83
2023/09/02 03:47:43;;;;;;;9.93;4.75;;;;;;;19.10;63.74;99461.31;4490514;31;33674;-83
2023/09/02 03:50:11;;;;;;;6.80;4.87;;;;;;;18.99;64.16;99465.91;4497086;31;33498;-83
2023/09/02 03:52:39;;;;;;;8.02;5.57;;;;;;;19.11;63.74;99460.41;4497810;31;34852;-83
2023/09/02 03:55:07;;;;;;;7.93;4.78;;;;;;;19.00;63.92;99457.09;4488400;31;34727;-84
2023/09/02 03:57:34;;;;;;;8.90;5.62;;;;;;;19.14;63.59;99457.75;4481737;31;34038;-83
2023/09/02 04:00:03;;;;;;;7.70;4.90;;;;;;;19.02;63.99;99460.59;4482051;32;33611;-86
2023/09/02 04:02:42;;;;;;;8.35;5.60;;;;;;;19.01;64.29;99458.84;4482614;31;34382;-83
2023/09/02 04:05:10;;;;;;;10.65;5.90;;;;;;;19.06;64.19;99460.50;4493842;31;34939;-87
2023/09/02 04:07:38;;;;;;;7.75;5.55;;;;;;;19.06;64.28;99465.75;4488516;31;33973;-83
2023/09/02 04:10:06;;;;;;;9.30;5.80;;;;;;;19.01;64.43;99467.56;4487779;31;34189;-84
2023/09/02 04:12:34;;;;;;;9.73;5.37;;;;;;;19.04;64.37;99471.94;4496923;31;34316;-84
2023/09/02 04:15:02;;;;;;;10.38;5.35;;;;;;;19.06;64.18;99470.16;4496815;31;35030;-82
2023/09/02 04:17:30;;;;;;;11.65;5.60;;;;;;;19.08;64.12;99470.97;4494426;31;34506;-84
2023/09/02 04:20:00;;;;;;;7.95;5.95;;;;;;;19.10;64.13;99471.84;4482054;31;34348;-83
2023/09/02 04:22:28;;;;;;;9.88;5.72;;;;;;;19.25;63.85;99470.72;4493010;31;34518;-84
2023/09/02 04:24:58;;;;;;;8.90;5.97;;;;;;;19.11;64.35;99471.78;4496849;31;34118;-83
2023/09/02 04:27:26;;;;;;;8.15;5.70;;;;;;;19.13;64.29;99474.38;4497113;31;34674;-83
2023/09/02 04:29:53;;;;;;;8.65;5.60;;;;;;;19.14;64.28;99473.50;4486810;31;33408;-83
2023/09/02 04:32:21;;;;;;;8.52;5.60;;;;;;;19.14;64.20;99478.78;4481773;32;34837;-84
2023/09/02 04:34:49;;;;;;;8.63;5.12;;;;;;;19.19;64.18;99484.81;4468866;32;33459;-83
2023/09/02 04:37:16;;;;;;;8.20;5.10;;;;;;;19.19;64.12;99482.19;4488017;31;33618;-83
2023/09/02 04:39:44;;;;;;;8.07;5.20;;;;;;;19.26;63.72;99486.44;4489188;31;33338;-82
2023/09/02 04:42:12;;;;;;;9.52;5.40;;;;;;;19.26;63.66;99483.81;4484043;32;34166;-84
2023/09/02 04:44:40;;;;;;;8.48;5.90;;;;;;;19.23;64.03;99491.75;4484270;32;33860;-83
2023/09/02 04:47:10;;;;;;;8.13;5.10;;;;;;;19.47;63.87;99493.06;4483810;31;33596;-83
2023/09/02 04:49:38;;;;;;;8.27;5.25;;;;;;;19.87;63.21;99487.09;4490677;31;33250;-83
2023/09/02 04:52:05;;;;;;;7.80;4.93;;;;;;;20.35;61.73;99494.88;4498479;31;33840;-82
2023/09/02 04:54:33;;;;;;;6.75;4.70;;;;;;;20.70;60.13;99488.84;4499722;31;34136;-82
2023/09/02 04:57:01;;;;;;;6.20;4.15;;;;;;;21.11;59.51;99493.09;4481569;31;33297;-83
2023/09/02 04:59:28;;;;;;;7.80;4.40;;;;;;;21.45;58.27;99488.78;4483505;31;33509;-84
2023/09/02 05:01:56;;;;;;;8.05;3.80;;;;;;;21.78;57.44;99485.22;4495321;31;32491;-82
2023/09/02 05:04:24;;;;;;;6.90;4.18;;;;;;;22.04;56.51;99481.81;4499640;31;34005;-86
2023/09/02 05:06:51;;;;;;;6.30;4.30;;;;;;;22.24;55.72;99476.00;4494689;31;34560;-83
2023/09/02 05:09:19;;;;;;;9.43;5.95;;;;;;;22.45;55.15;99481.53;4483652;31;33601;-84
2023/09/02 05:11:47;;;;;;;9.00;4.85;;;;;;;22.25;56.37;99482.16;4485885;31;33563;-84
2023/09/02 05:14:15;;;;;;;5.53;3.70;;;;;;;22.17;56.88;99492.09;4495866;31;34375;-83
2023/09/02 05:16:42;;;;;;;8.38;4.18;;;;;;;22.77;54.91;99489.34;4484069;31;33008;-83
2023/09/02 05:19:10;;;;;;;7.20;4.68;;;;;;;23.09;53.61;99484.81;4483667;31;34442;-83
2023/09/02 05:21:38;;;;;;;9.35;4.18;;;;;;;23.20;53.13;99481.81;4487266;31;33622;-84
2023/09/02 05:24:06;;;;;;;6.37;4.10;;;;;;;23.13;53.88;99489.06;4492704;31;33868;-83
2023/09/02 05:26:35;;;;;;;8.55;4.25;;;;;;;22.75;55.21;99485.00;4483901;31;33971;-85
2023/09/02 05:29:02;;;;;;;6.05;3.87;;;;;;;23.17;54.22;99490.69;4483722;32;33480;-84
2023/09/02 05:31:31;;;;;;;5.62;3.58;;;;;;;23.37;53.44;99482.09;4489726;31;34834;-83
2023/09/02 05:33:58;;;;;;;7.00;3.58;;;;;;;23.49;52.06;99480.81;4487067;31;33711;-83
2023/09/02 05:36:26;;;;;;;6.03;3.70;;;;;;;23.48;52.12;99484.38;4491715;31;32920;-84
2023/09/02 05:38:53;;;;;;;5.97;4.37;;;;;;;23.32;53.46;99489.31;4493671;31;33238;-84
2023/09/02 05:41:21;;;;;;;6.50;3.90;;;;;;;23.79;52.32;99490.34;4497752;31;33921;-84
2023/09/02 05:43:49;;;;;;;7.80;4.22;;;;;;;23.70;51.77;99487.16;4498995;31;33945;-84
2023/09/02 05:46:16;;;;;;;7.07;4.55;;;;;;;23.34;53.63;99486.66;4497755;31;34031;-84
2023/09/02 05:48:44;;;;;;;6.65;4.12;;;;;;;23.66;52.57;99494.34;4498844;31;34342;-84
2023/09/02 05:51:11;;;;;;;8.60;4.62;;;;;;;23.62;51.99;99487.41;4497782;31;33792;-83
2023/09/02 05:53:39;;;;;;;7.37;5.00;;;;;;;23.30;53.29;99499.13;4498839;31;33907;-84
2023/09/02 05:56:07;;;;;;;8.57;4.53;;;;;;;23.44;53.62;99491.53;4492050;31;33882;-84
2023/09/02 05:58:34;;;;;;;8.48;4.60;;;;;;;22.71;56.24;99493.94;4494264;31;33436;-86
2023/09/02 06:01:05;;;;;;;6.30;4.00;;;;;;;22.76;55.63;99490.25;4496508;31;34739;-85
2023/09/02 06:03:33;;;;;;;6.62;5.18;;;;;;;23.05;55.04;99488.47;4497683;31;33959;-86
2023/09/02 06:06:01;;;;;;;7.93;4.87;;;;;;;22.39;56.28;99489.66;4499125;31;33807;-85
2023/09/02 06:08:28;;;;;;;8.80;5.22;;;;;;;22.58;55.79;99493.47;4498979;31;33238;-85
2023/09/02 06:10:59;;;;;;;7.15;4.32;;;;;;;22.42;55.90;99497.47;4488869;31;33892;-83
2023/09/02 06:13:26;;;;;;;8.10;5.68;;;;;;;22.49;57.62;99502.53;4492344;31;33683;-84
2023/09/02 06:16:03;;;;;;;8.48;5.47;;;;;;;22.86;54.96;99498.75;4481511;31;33123;-83
2023/09/02 06:18:32;;;;;;;7.53;5.18;;;;;;;22.69;56.24;99501.94;4486529;31;33778;-85
2023/09/02 06:21:07;;;;;;;11.35;6.20;;;;;;;22.81;56.12;99501.56;4488078;31;32699;-85
2023/09/02 06:23:36;;;;;;;8.65;5.78;;;;;;;22.71;56.46;99504.53;4469471;32;33265;-85
2023/09/02 06:26:03;;;;;;;8.00;5.43;;;;;;;22.65;57.05;99504.72;4481578;31;33116;-84
2023/09/02 06:28:31;;;;;;;8.57;5.68;;;;;;;22.59;55.98;99506.63;4483122;32;33530;-85
2023/09/02 06:31:05;;;;;;;7.03;5.55;;;;;;;22.72;56.03;99511.53;4483268;32;33908;-84
2023/09/02 06:33:32;;;;;;;7.32;4.07;;;;;;;22.67;56.81;99516.97;4488454;31;33716;-85
2023/09/02 06:36:00;;;;;;;7.25;4.68;;;;;;;22.64;54.03;99514.41;4487132;31;35147;-84
2023/09/02 06:38:30;;;;;;;6.85;4.60;;;;;;;22.75;52.79;99516.72;4481413;31;34046;-85
2023/09/02 06:40:57;;;;;;;9.10;4.15;;;;;;;22.44;53.27;99509.75;4482930;32;33150;-85
2023/09/02 06:43:25;;;;;;;6.22;4.45;;;;;;;22.60;53.77;99518.06;4486847;31;34161;-86
2023/09/02 06:45:53;;;;;;;8.05;5.00;;;;;;;23.03;53.83;99524.66;4498716;31;33843;-86
2023/09/02 06:48:20;;;;;;;9.10;5.10;;;;;;;22.67;55.37;99522.25;4491138;31;33525;-84
2023/09/02 06:50:48;;;;;;;10.75;4.55;;;;;;;22.72;55.22;99528.25;4484050;31;32788;-84
2023/09/02 06:53:15;;;;;;;7.53;4.10;;;;;;;22.80;54.10;99525.38;4487032;31;35044;-84
2023/09/02 06:55:43;;;;;;;9.82;4.60;;;;;;;22.86;54.25;99526.97;4487408;31;34170;-85
2023/09/02 06:58:11;;;;;;;7.97;4.20;;;;;;;22.85;54.02;99527.91;4483136;31;34328;-82
2023/09/02 07:00:39;;;;;;;6.60;3.47;;;;;;;22.88;53.91;99527.78;4493604;31;34754;-83
2023/09/02 07:03:06;;;;;;;6.57;4.43;;;;;;;23.06;54.38;99529.88;4498613;31;34962;-83
2023/09/02 07:05:34;;;;;;;7.15;4.57;;;;;;;23.04;53.79;99526.41;4489114;31;33357;-84
2023/09/02 07:08:02;;;;;;;7.37;4.00;;;;;;;23.10;53.87;99523.56;4468526;31;31610;-83
2023/09/02 07:10:29;;;;;;;7.97;3.80;;;;;;;23.23;52.74;99529.31;4481578;32;34451;-83
2023/09/02 07:12:57;;;;;;;5.72;3.53;;;;;;;23.08;53.02;99533.34;4481636;32;35007;-83
2023/09/02 07:15:25;;;;;;;5.45;3.30;;;;;;;23.56;52.42;99527.31;4482631;31;34618;-84
2023/09/02 07:17:52;;;;;;;6.18;3.65;;;;;;;23.58;51.89;99525.47;4489259;31;34262;-86
2023/09/02 07:20:20;;;;;;;6.22;3.35;;;;;;;23.83;53.23;99535.22;4487790;31;32434;-85
2023/09/02 07:22:47;;;;;;;5.50;2.90;;;;;;;24.21;53.09;99529.41;4488426;31;34825;-86
2023/09/02 07:25:15;;;;;;;6.20;3.22;;;;;;;24.64;50.49;99534.91;4494966;31;33640;-84
2023/09/02 07:27:42;;;;;;;5.68;2.95;;;;;;;24.80;49.96;99530.72;4493184;31;34184;-85
2023/09/02 07:30:10;;;;;;;7.03;3.37;;;;;;;24.79;49.14;99533.44;4487669;31;33696;-84
2023/09/02 07:32:38;;;;;;;5.80;3.10;;;;;;;24.45;49.80;99538.25;4494760;31;34293;-84
2023/09/02 07:35:06;;;;;;;5.30;2.72;;;;;;;24.90;51.01;99536.53;4484466;31;34609;-84
2023/09/02 07:37:33;;;;;;;7.03;3.20;;;;;;;24.91;49.09;99535.59;4482532;31;33328;-84
2023/09/02 07:40:01;;;;;;;6.28;2.47;;;;;;;25.12;49.70;99534.78;4475461;32;34205;-85
2023/09/02 07:42:29;;;;;;;5.03;2.87;;;;;;;25.13;48.18;99532.97;4482452;31;35075;-84
2023/09/02 07:44:56;;;;;;;5.28;3.03;;;;;;;24.58;48.72;99541.28;4484048;31;34110;-84
2023/09/02 07:47:24;;;;;;;7.80;3.08;;;;;;;25.10;48.31;99539.25;4479672;32;33316;-84
2023/09/02 07:49:56;;;;;;;6.28;3.03;;;;;;;25.41;48.40;99545.94;4489783;31;33787;-85
2023/09/02 07:52:24;;;;;;;6.32;2.67;;;;;;;25.34;47.59;99537.38;4495329;31;34221;-86
2023/09/02 07:54:51;;;;;;;6.10;2.20;;;;;;;25.35;49.64;99544.44;4496149;31;33853;-85
2023/09/02 07:57:19;;;;;;;5.53;2.80;;;;;;;25.53;47.42;99548.06;4498065;31;33457;-84
2023/09/02 07:59:47;;;;;;;4.75;2.58;;;;;;;25.61;46.91;99538.03;4484403;31;34687;-85
2023/09/02 08:02:14;;;;;;;5.43;2.62;;;;;;;25.39;47.04;99547.81;4483836;31;34979;-85
2023/09/02 08:04:42;;;;;;;5.70;2.83;;;;;;;25.68;46.98;99542.16;4477265;32;33066;-84
2023/09/02 08:07:10;;;;;;;6.85;2.70;;;;;;;25.34;47.16;99555.09;4490848;31;32586;-84
2023/09/02 08:09:37;;;;;;;6.07;3.03;;;;;;;25.62;47.77;99553.00;4498583;31;33732;-84
2023/09/02 08:12:06;;;;;;;4.95;3.10;;;;;;;25.75;48.11;99548.03;4485855;31;35236;-89
2023/09/02 08:14:34;;;;;;;8.25;3.50;;;;;;;25.78;47.76;99547.94;4482530;31;33374;-86
2023/09/02 08:17:02;;;;;;;6.85;3.03;;;;;;;25.75;47.40;99549.81;4483116;31;33163;-85
2023/09/02 08:19:33;;;;;;;7.68;3.55;;;;;;;26.13;46.49;99554.34;4487320;31;33919;-85
2023/09/02 08:22:00;;;;;;;5.15;2.97;;;;;;;26.15;47.48;99552.50;4484681;31;34342;-83
2023/09/02 08:24:29;;;;;;;6.03;3.72;;;;;;;26.29;46.91;99556.28;4494601;31;34563;-83
2023/09/02 08:26:56;;;;;;;6.60;2.80;;;;;;;26.20;46.74;99553.13;4484348;31;33596;-85
2023/09/02 08:29:24;;;;;;;7.78;3.35;;;;;;;26.48;46.55;99554.59;4492053;31;33482;-85
2023/09/02 08:31:53;;;;;;;5.55;2.62;;;;;;;26.49;47.18;99548.31;4483765;31;33911;-91
2023/09/02 08:34:21;;;;;;;6.95;3.75;;;;;;;26.51;47.45;99554.41;4483361;31;32540;-89
2023/09/02 08:36:48;;;;;;;7.12;3.12;;;;;;;26.53;46.70;99547.25;4481709;31;33038;-86
2023/09/02 08:39:16;;;;;;;5.78;3.05;;;;;;;26.37;47.02;99554.19;4488933;31;33959;-85
2023/09/02 08:41:45;;;;;;;8.88;3.53;;;;;;;26.26;47.78;99554.66;4486140;31;34272;-85
2023/09/02 08:44:16;;;;;;;7.20;3.30;;;;;;;26.31;47.43;99552.66;4492550;31;34196;-83
2023/09/02 08:46:45;;;;;;;5.85;2.97;;;;;;;26.50;47.29;99549.19;4489310;31;34574;-83
2023/09/02 08:49:15;;;;;;;6.03;2.60;;;;;;;26.28;48.12;99555.44;4488488;31;33634;-85
2023/09/02 08:51:43;;;;;;;6.43;2.60;;;;;;;26.47;47.07;99552.84;4497492;31;33700;-85
2023/09/02 08:54:12;;;;;;;5.68;2.30;;;;;;;26.69;46.88;99569.50;4497089;31;34468;-84
2023/09/02 08:56:41;;;;;;;6.03;2.70;;;;;;;26.68;47.25;99562.47;4482143;31;33446;-85
2023/09/02 08:59:10;;;;;;;6.78;2.40;;;;;;;26.91;46.95;99560.53;4469595;32;34124;-83
2023/09/02 09:01:45;;;;;;;5.32;2.95;;;;;;;27.10;46.48;99557.84;4490821;31;33774;-83
2023/09/02 09:04:14;;;;;;;6.53;2.83;;;;;;;26.88;47.27;99563.31;4496725;31;33980;-85
2023/09/02 09:06:42;;;;;;;6.30;2.92;;;;;;;26.91;46.39;99558.72;4497371;31;33197;-83
2023/09/02 09:09:10;;;;;;;5.53;2.85;;;;;;;26.78;47.69;99568.22;4475387;32;34001;-85
2023/09/02 09:11:42;;;;;;;5.82;3.70;;;;;;;27.09;46.52;99556.97;4492680;31;33647;-88
2023/09/02 09:14:32;;;;;;;6.90;2.90;;;;;;;27.42;45.82;99554.44;4495291;31;33911;-89
2023/09/02 09:17:00;;;;;;;7.12;2.70;;;;;;;27.37;46.20;99555.62;4483537;31;33265;-87
2023/09/02 09:19:28;;;;;;;11.15;2.95;;;;;;;27.46;46.18;99560.50;4484882;31;34712;-83
2023/09/02 09:21:57;;;;;;;8.20;3.10;;;;;;;27.38;47.01;99563.53;4482795;31;34943;-83
2023/09/02 09:24:27;;;;;;;5.70;2.85;;;;;;;27.81;45.41;99563.22;4485213;31;34511;-84
2023/09/02 09:26:58;;;;;;;9.00;2.60;;;;;;;27.79;45.50;99559.75;4491723;31;33356;-89
2023/09/02 09:29:38;;;;;;;5.10;2.40;;;;;;;27.70;45.59;99561.06;4489749;31;34299;-83
2023/09/02 09:32:13;;;;;;;4.65;2.30;;;;;;;27.82;45.66;99551.59;4493351;31;34960;-86
2023/09/02 09:34:42;;;;;;;7.20;2.20;;;;;;;27.70;44.26;99562.88;4483948;31;34765;-86
2023/09/02 09:37:11;;;;;;;5.53;2.58;;;;;;;27.84;44.83;99563.03;4488411;31;33254;-88
2023/09/02 09:39:42;;;;;;;4.00;1.95;;;;;;;27.69;44.73;99561.13;4488324;31;33718;-87
2023/09/02 09:42:13;;;;;;;4.87;2.17;;;;;;;28.05;44.15;99553.91;4487625;31;34573;-83
2023/09/02 09:44:52;;;;;;;7.72;2.20;;;;;;;27.88;43.96;99567.25;4488340;31;33924;-83
2023/09/02 09:47:24;;;;;;;3.62;1.80;;;;;;;28.22;43.72;99558.34;4486138;31;33209;-89
2023/09/02 09:49:52;;;;;;;5.03;1.77;;;;;;;28.24;43.57;99558.28;4487010;31;33931;-85
2023/09/02 09:52:20;;;;;;;4.70;1.75;;;;;;;28.40;42.72;99548.53;4487332;31;34686;-92
2023/09/02 09:54:52;;;;;;;6.15;2.10;;;;;;;27.93;43.97;99559.91;4486337;31;33081;-86
2023/09/02 09:57:30;;;;;;;5.65;1.77;;;;;;;28.20;42.86;99554.06;4475875;31;33917;-83
2023/09/02 09:59:58;;;;;;;7.05;1.80;;;;;;;28.48;42.71;99561.44;4488905;31;34421;-85
2023/09/02 10:02:26;;;;;;;5.45;1.50;;;;;;;28.56;42.35;99554.75;4496358;31;33585;-88
2023/09/02 10:04:56;;;;;;;2.80;1.30;;;;;;;28.32;42.41;99554.25;4472662;31;33836;-83
2023/09/02 10:07:31;;;;;;;5.93;1.87;;;;;;;28.70;42.93;99555.78;4471779;31;33672;-86
2023/09/02 10:10:55;;;;;;;6.80;2.08;;;;;;;28.91;41.03;99549.25;4487634;31;34508;-82
2023/09/02 10:13:23;;;;;;;3.85;1.55;;;;;;;29.04;40.95;99547.62;4483712;31;33617;-81
2023/09/02 10:15:50;;;;;;;9.00;2.42;;;;;;;29.21;40.74;99551.13;4485151;31;34511;-82
2023/09/02 10:18:18;;;;;;;4.18;1.67;;;;;;;29.07;41.43;99552.78;4491878;31;34850;-84
2023/09/02 10:20:47;;;;;;;6.30;2.03;;;;;;;29.22;41.12;99552.88;4497752;31;33888;-82
2023/09/02 10:23:16;;;;;;;5.87;1.80;;;;;;;29.40;39.59;99557.16;4495342;31;34117;-85
2023/09/02 10:25:53;;;;;;;4.60;2.10;;;;;;;29.15;40.75;99547.00;4486379;31;33468;-89
2023/09/02 10:28:24;;;;;;;5.45;1.80;;;;;;;29.11;41.30;99552.63;4486836;31;33483;-82
2023/09/02 10:30:55;;;;;;;3.60;1.65;;;;;;;29.13;40.95;99550.72;4484023;31;33716;-84
2023/09/02 10:33:39;;;;;;;4.97;2.00;;;;;;;28.98;40.10;99549.78;4482658;31;34153;-87
2023/09/02 10:36:08;;;;;;;2.92;1.42;;;;;;;29.21;39.76;99545.78;4492170;31;34570;-91
2023/09/02 10:38:41;;;;;;;5.28;1.90;;;;;;;28.99;41.71;99552.37;4488226;31;32236;-83
2023/09/02 10:41:12;;;;;;;4.95;2.00;;;;;;;29.15;40.12;99538.16;4488528;31;34640;-81
2023/09/02 10:43:41;;;;;;;4.37;1.55;;;;;;;28.73;40.72;99550.28;4494638;31;34271;-83
2023/09/02 10:46:09;;;;;;;3.67;1.60;;;;;;;28.93;40.07;99542.00;4485266;31;33867;-83
2023/09/02 10:48:40;;;;;;;5.25;1.87;;;;;;;29.41;39.74;99547.31;4483876;31;33242;-83
2023/09/02 10:51:09;;;;;;;5.68;1.80;;;;;;;29.33;39.69;99543.28;4472442;31;34045;-84
2023/09/02 10:53:51;;;;;;;4.15;1.80;;;;;;;29.48;40.54;99540.66;4476825;31;35101;-89
2023/09/02 10:56:32;;;;;;;5.28;1.50;;;;;;;29.44;40.50;99542.66;4492114;31;34557;-84
2023/09/02 10:59:09;;;;;;;5.70;1.70;;;;;;;29.32;40.02;99543.34;4486782;31;31988;-86
2023/09/02 11:01:48;;;;;;;4.87;1.70;;;;;;;29.32;40.44;99538.91;4490415;31;34063;-88
2023/09/02 11:04:40;;;;;;;5.57;1.90;;;;;;;29.50;40.21;99542.28;4483065;31;34219;-87
2023/09/02 11:07:22;;;;;;;3.25;1.45;;;;;;;29.53;40.98;99544.78;4496145;31;33232;-87
2023/09/02 11:09:54;;;;;;;4.68;1.60;;;;;;;29.56;39.21;99547.25;4482772;31;33641;-88
2023/09/02 11:12:22;;;;;;;4.93;1.58;;;;;;;29.80;38.87;99538.75;4484621;31;34095;-85
2023/09/02 11:15:08;;;;;;;4.72;1.70;;;;;;;29.71;39.16;99545.53;4496026;31;35020;-84
2023/09/02 11:17:39;;;;;;;3.47;1.70;;;;;;;29.57;38.46;99551.69;4484025;31;32655;-84
2023/09/02 11:20:25;;;;;;;6.05;1.77;;;;;;;29.18;39.40;99556.66;4471512;31;32662;-83
2023/09/02 11:23:09;;;;;;;4.47;1.60;;;;;;;29.11;40.20;99550.81;4490705;31;34266;-83
2023/09/02 11:25:37;;;;;;;5.80;1.60;;;;;;;29.19;38.62;99550.38;4488525;31;34166;-82
2023/09/02 11:28:17;;;;;;;3.90;1.52;;;;;;;29.00;38.94;99546.09;4483047;31;33342;-85
2023/09/02 11:31:03;;;;;;;6.97;1.60;;;;;;;28.88;39.46;99549.44;4486680;31;33549;-85
2023/09/02 11:33:33;;;;;;;4.60;1.77;;;;;;;28.59;41.21;99551.91;4482384;32;34079;-87
2023/09/02 11:36:11;;;;;;;4.07;1.48;;;;;;;28.91;40.07;99549.25;4480988;32;34887;-82
2023/09/02 11:38:39;;;;;;;3.17;1.42;;;;;;;29.25;39.30;99555.38;4490339;31;34553;-87
2023/09/02 11:41:09;;;;;;;4.37;1.80;;;;;;;29.47;38.27;99550.50;4487851;31;33407;-87
2023/09/02 11:43:37;;;;;;;5.87;1.80;;;;;;;29.50;37.46;99558.31;4492841;31;34636;-86